Terminal Aerodrome Forecast
Issued by NWS

Home | Current Version | Previous Version | Text Only | Print | Product List | Glossary On
Versions: 1 2 3 4 5 6 7 8 9 10 11 12 13 14 15 16 17 18 19
000
FTUS42 KFFC 271745
TAFFTY
TAF
KFTY 271745Z 2718/2818 33007KT P6SM SCT250
     FM280100 35002KT P6SM SCT025
     FM280900 06006KT P6SM OVC015
     FM281500 08010G16KT P6SM OVC020=

USA.gov is the U.S. government's official web portal to all federal, state and local government web resources and services.